sensor_id;sensor_type;location;lat;lon;timestamp;P1;durP1;ratioP1;P2;durP2;ratioP2
8889;SDS011;4481;43.406;24.454;2022-11-11T00:01:03;33.53;;;25.17;;
8889;SDS011;4481;43.406;24.454;2022-11-11T00:03:31;31.80;;;23.37;;
8889;SDS011;4481;43.406;24.454;2022-11-11T00:06:01;39.17;;;25.87;;
8889;SDS011;4481;43.406;24.454;2022-11-11T00:08:27;38.17;;;27.53;;
8889;SDS011;4481;43.406;24.454;2022-11-11T00:10:58;33.97;;;25.03;;
8889;SDS011;4481;43.406;24.454;2022-11-11T00:13:27;36.57;;;25.17;;
8889;SDS011;4481;43.406;24.454;2022-11-11T00:15:54;28.67;;;22.43;;
8889;SDS011;4481;43.406;24.454;2022-11-11T00:18:20;33.03;;;23.23;;
8889;SDS011;4481;43.406;24.454;2022-11-11T00:21:06;29.20;;;22.80;;
8889;SDS011;4481;43.406;24.454;2022-11-11T00:24:14;29.40;;;22.40;;
8889;SDS011;4481;43.406;24.454;2022-11-11T00:27:04;33.33;;;24.70;;
8889;SDS011;4481;43.406;24.454;2022-11-11T00:29:31;31.10;;;22.47;;
8889;SDS011;4481;43.406;24.454;2022-11-11T00:31:57;33.97;;;24.10;;
8889;SDS011;4481;43.406;24.454;2022-11-11T00:34:41;33.33;;;25.00;;
8889;SDS011;4481;43.406;24.454;2022-11-11T00:37:28;36.07;;;26.37;;
8889;SDS011;4481;43.406;24.454;2022-11-11T00:39:54;29.23;;;22.50;;
8889;SDS011;4481;43.406;24.454;2022-11-11T00:42:20;35.43;;;23.83;;
8889;SDS011;4481;43.406;24.454;2022-11-11T00:44:47;37.17;;;24.23;;
8889;SDS011;4481;43.406;24.454;2022-11-11T00:47:13;34.23;;;24.07;;
8889;SDS011;4481;43.406;24.454;2022-11-11T00:49:57;34.00;;;22.87;;
8889;SDS011;4481;43.406;24.454;2022-11-11T00:52:43;31.70;;;23.90;;
8889;SDS011;4481;43.406;24.454;2022-11-11T00:55:10;33.53;;;24.23;;
8889;SDS011;4481;43.406;24.454;2022-11-11T00:57:36;29.63;;;23.23;;
8889;SDS011;4481;43.406;24.454;2022-11-11T01:00:03;39.43;;;25.43;;
8889;SDS011;4481;43.406;24.454;2022-11-11T01:02:30;33.93;;;24.27;;
8889;SDS011;4481;43.406;24.454;2022-11-11T01:04:56;37.20;;;24.17;;
8889;SDS011;4481;43.406;24.454;2022-11-11T01:07:22;42.07;;;27.57;;
8889;SDS011;4481;43.406;24.454;2022-11-11T01:09:49;37.00;;;26.33;;
8889;SDS011;4481;43.406;24.454;2022-11-11T01:12:15;41.00;;;28.57;;
8889;SDS011;4481;43.406;24.454;2022-11-11T01:14:41;38.63;;;26.43;;
8889;SDS011;4481;43.406;24.454;2022-11-11T01:17:08;36.03;;;26.27;;
8889;SDS011;4481;43.406;24.454;2022-11-11T01:19:34;39.00;;;26.63;;
8889;SDS011;4481;43.406;24.454;2022-11-11T01:22:00;38.77;;;27.53;;
8889;SDS011;4481;43.406;24.454;2022-11-11T01:24:27;35.20;;;26.20;;
8889;SDS011;4481;43.406;24.454;2022-11-11T01:26:53;43.20;;;27.77;;
8889;SDS011;4481;43.406;24.454;2022-11-11T01:29:19;37.03;;;28.43;;
8889;SDS011;4481;43.406;24.454;2022-11-11T01:31:45;41.17;;;29.10;;
8889;SDS011;4481;43.406;24.454;2022-11-11T01:34:12;34.43;;;26.27;;
8889;SDS011;4481;43.406;24.454;2022-11-11T01:36:38;32.90;;;24.90;;
8889;SDS011;4481;43.406;24.454;2022-11-11T01:39:04;38.03;;;29.03;;
8889;SDS011;4481;43.406;24.454;2022-11-11T01:41:31;39.00;;;25.50;;
8889;SDS011;4481;43.406;24.454;2022-11-11T01:44:01;31.33;;;24.53;;
8889;SDS011;4481;43.406;24.454;2022-11-11T01:46:38;36.40;;;23.13;;
8889;SDS011;4481;43.406;24.454;2022-11-11T01:49:13;33.67;;;25.63;;
8889;SDS011;4481;43.406;24.454;2022-11-11T01:51:56;43.80;;;26.60;;
8889;SDS011;4481;43.406;24.454;2022-11-11T01:54:31;36.47;;;25.90;;
8889;SDS011;4481;43.406;24.454;2022-11-11T01:57:01;37.10;;;25.73;;
8889;SDS011;4481;43.406;24.454;2022-11-11T01:59:32;36.90;;;25.37;;
8889;SDS011;4481;43.406;24.454;2022-11-11T02:02:00;33.07;;;23.60;;
8889;SDS011;4481;43.406;24.454;2022-11-11T02:04:30;33.63;;;24.00;;
8889;SDS011;4481;43.406;24.454;2022-11-11T02:07:15;31.60;;;22.97;;
8889;SDS011;4481;43.406;24.454;2022-11-11T02:09:44;42.07;;;25.07;;
8889;SDS011;4481;43.406;24.454;2022-11-11T02:12:12;34.10;;;24.50;;
8889;SDS011;4481;43.406;24.454;2022-11-11T02:14:57;35.93;;;25.47;;
8889;SDS011;4481;43.406;24.454;2022-11-11T02:17:25;33.37;;;23.23;;
8889;SDS011;4481;43.406;24.454;2022-11-11T02:19:55;33.00;;;24.17;;
8889;SDS011;4481;43.406;24.454;2022-11-11T02:22:27;36.73;;;24.77;;
8889;SDS011;4481;43.406;24.454;2022-11-11T02:24:59;31.30;;;23.83;;
8889;SDS011;4481;43.406;24.454;2022-11-11T02:27:28;33.43;;;24.73;;
8889;SDS011;4481;43.406;24.454;2022-11-11T02:29:57;34.17;;;24.33;;
8889;SDS011;4481;43.406;24.454;2022-11-11T02:32:25;31.60;;;23.80;;
8889;SDS011;4481;43.406;24.454;2022-11-11T02:34:51;31.40;;;23.77;;
8889;SDS011;4481;43.406;24.454;2022-11-11T02:37:20;31.43;;;23.40;;
8889;SDS011;4481;43.406;24.454;2022-11-11T02:39:49;36.20;;;24.37;;
8889;SDS011;4481;43.406;24.454;2022-11-11T02:42:17;38.07;;;23.93;;
8889;SDS011;4481;43.406;24.454;2022-11-11T02:44:45;33.93;;;23.80;;
8889;SDS011;4481;43.406;24.454;2022-11-11T02:47:12;34.50;;;25.53;;
8889;SDS011;4481;43.406;24.454;2022-11-11T02:49:38;33.93;;;23.80;;
8889;SDS011;4481;43.406;24.454;2022-11-11T02:52:04;31.23;;;21.57;;
8889;SDS011;4481;43.406;24.454;2022-11-11T02:54:30;35.57;;;24.57;;
8889;SDS011;4481;43.406;24.454;2022-11-11T02:56:56;34.80;;;25.73;;
8889;SDS011;4481;43.406;24.454;2022-11-11T02:59:36;32.27;;;23.90;;
8889;SDS011;4481;43.406;24.454;2022-11-11T03:02:03;31.47;;;24.87;;
8889;SDS011;4481;43.406;24.454;2022-11-11T03:04:29;30.97;;;23.17;;
8889;SDS011;4481;43.406;24.454;2022-11-11T03:06:56;30.43;;;22.27;;
8889;SDS011;4481;43.406;24.454;2022-11-11T03:09:22;34.73;;;24.57;;
8889;SDS011;4481;43.406;24.454;2022-11-11T03:11:48;33.53;;;24.40;;
8889;SDS011;4481;43.406;24.454;2022-11-11T03:14:14;31.60;;;23.40;;
8889;SDS011;4481;43.406;24.454;2022-11-11T03:16:41;31.23;;;22.93;;
8889;SDS011;4481;43.406;24.454;2022-11-11T03:19:26;35.67;;;23.47;;
8889;SDS011;4481;43.406;24.454;2022-11-11T03:21:52;36.37;;;23.40;;
8889;SDS011;4481;43.406;24.454;2022-11-11T03:24:19;29.87;;;22.57;;
8889;SDS011;4481;43.406;24.454;2022-11-11T03:26:45;31.63;;;22.80;;
8889;SDS011;4481;43.406;24.454;2022-11-11T03:29:12;32.30;;;24.30;;
8889;SDS011;4481;43.406;24.454;2022-11-11T03:31:38;32.33;;;23.53;;
8889;SDS011;4481;43.406;24.454;2022-11-11T03:34:05;36.63;;;26.23;;
8889;SDS011;4481;43.406;24.454;2022-11-11T03:36:43;30.30;;;23.33;;
8889;SDS011;4481;43.406;24.454;2022-11-11T03:39:27;33.17;;;24.07;;
8889;SDS011;4481;43.406;24.454;2022-11-11T03:41:53;34.13;;;25.13;;
8889;SDS011;4481;43.406;24.454;2022-11-11T03:44:20;31.90;;;24.27;;
8889;SDS011;4481;43.406;24.454;2022-11-11T03:46:46;33.07;;;23.00;;
8889;SDS011;4481;43.406;24.454;2022-11-11T03:49:13;29.43;;;24.10;;
8889;SDS011;4481;43.406;24.454;2022-11-11T03:51:39;35.47;;;24.03;;
8889;SDS011;4481;43.406;24.454;2022-11-11T03:54:05;32.57;;;24.37;;
8889;SDS011;4481;43.406;24.454;2022-11-11T03:56:31;31.43;;;24.37;;
8889;SDS011;4481;43.406;24.454;2022-11-11T03:58:58;32.77;;;24.27;;
8889;SDS011;4481;43.406;24.454;2022-11-11T04:01:24;34.73;;;25.33;;
8889;SDS011;4481;43.406;24.454;2022-11-11T04:04:04;35.87;;;26.17;;
8889;SDS011;4481;43.406;24.454;2022-11-11T04:06:49;35.27;;;24.80;;
8889;SDS011;4481;43.406;24.454;2022-11-11T04:09:33;32.80;;;24.03;;
8889;SDS011;4481;43.406;24.454;2022-11-11T04:12:17;35.33;;;24.90;;
8889;SDS011;4481;43.406;24.454;2022-11-11T04:14:43;35.07;;;24.23;;
8889;SDS011;4481;43.406;24.454;2022-11-11T04:17:27;33.03;;;24.53;;
8889;SDS011;4481;43.406;24.454;2022-11-11T04:19:54;33.30;;;24.87;;
8889;SDS011;4481;43.406;24.454;2022-11-11T04:22:40;32.20;;;25.47;;
8889;SDS011;4481;43.406;24.454;2022-11-11T04:25:07;37.67;;;24.37;;
8889;SDS011;4481;43.406;24.454;2022-11-11T04:27:52;32.43;;;23.83;;
8889;SDS011;4481;43.406;24.454;2022-11-11T04:30:35;30.77;;;24.13;;
8889;SDS011;4481;43.406;24.454;2022-11-11T04:33:02;31.87;;;24.13;;
8889;SDS011;4481;43.406;24.454;2022-11-11T04:35:28;33.83;;;23.20;;
8889;SDS011;4481;43.406;24.454;2022-11-11T04:37:55;32.60;;;24.27;;
8889;SDS011;4481;43.406;24.454;2022-11-11T04:40:41;32.13;;;24.07;;
8889;SDS011;4481;43.406;24.454;2022-11-11T04:43:25;34.20;;;24.77;;
8889;SDS011;4481;43.406;24.454;2022-11-11T04:45:51;35.50;;;25.27;;
8889;SDS011;4481;43.406;24.454;2022-11-11T04:48:16;30.70;;;24.17;;
8889;SDS011;4481;43.406;24.454;2022-11-11T04:50:44;33.77;;;23.57;;
8889;SDS011;4481;43.406;24.454;2022-11-11T04:53:12;33.53;;;24.23;;
8889;SDS011;4481;43.406;24.454;2022-11-11T04:55:39;39.03;;;26.03;;
8889;SDS011;4481;43.406;24.454;2022-11-11T04:58:26;35.90;;;25.90;;
8889;SDS011;4481;43.406;24.454;2022-11-11T05:00:53;34.00;;;24.70;;
8889;SDS011;4481;43.406;24.454;2022-11-11T05:03:19;34.77;;;24.97;;
8889;SDS011;4481;43.406;24.454;2022-11-11T05:05:48;34.97;;;24.97;;
8889;SDS011;4481;43.406;24.454;2022-11-11T05:08:46;31.50;;;23.77;;
8889;SDS011;4481;43.406;24.454;2022-11-11T05:11:24;36.20;;;24.67;;
8889;SDS011;4481;43.406;24.454;2022-11-11T05:13:52;32.77;;;24.67;;
8889;SDS011;4481;43.406;24.454;2022-11-11T05:16:37;35.57;;;24.80;;
8889;SDS011;4481;43.406;24.454;2022-11-11T05:19:24;35.30;;;25.43;;
8889;SDS011;4481;43.406;24.454;2022-11-11T05:22:09;30.67;;;21.17;;
8889;SDS011;4481;43.406;24.454;2022-11-11T05:24:39;32.70;;;22.77;;
8889;SDS011;4481;43.406;24.454;2022-11-11T05:27:38;28.93;;;21.47;;
8889;SDS011;4481;43.406;24.454;2022-11-11T05:30:05;30.73;;;21.90;;
8889;SDS011;4481;43.406;24.454;2022-11-11T05:32:32;26.33;;;21.80;;
8889;SDS011;4481;43.406;24.454;2022-11-11T05:34:58;28.07;;;20.97;;
8889;SDS011;4481;43.406;24.454;2022-11-11T05:37:25;29.97;;;21.10;;
8889;SDS011;4481;43.406;24.454;2022-11-11T05:39:53;26.90;;;20.63;;
8889;SDS011;4481;43.406;24.454;2022-11-11T05:42:20;27.53;;;21.13;;
8889;SDS011;4481;43.406;24.454;2022-11-11T05:44:46;30.90;;;22.90;;
8889;SDS011;4481;43.406;24.454;2022-11-11T05:47:12;28.00;;;21.13;;
8889;SDS011;4481;43.406;24.454;2022-11-11T05:49:38;26.13;;;20.30;;
8889;SDS011;4481;43.406;24.454;2022-11-11T05:52:04;25.30;;;19.97;;
8889;SDS011;4481;43.406;24.454;2022-11-11T05:54:32;31.63;;;20.40;;
8889;SDS011;4481;43.406;24.454;2022-11-11T05:56:58;30.23;;;21.93;;
8889;SDS011;4481;43.406;24.454;2022-11-11T05:59:25;29.47;;;21.57;;
8889;SDS011;4481;43.406;24.454;2022-11-11T06:01:51;33.17;;;21.40;;
8889;SDS011;4481;43.406;24.454;2022-11-11T06:04:17;29.00;;;21.50;;
8889;SDS011;4481;43.406;24.454;2022-11-11T06:06:43;26.47;;;20.83;;
8889;SDS011;4481;43.406;24.454;2022-11-11T06:09:10;27.97;;;21.70;;
8889;SDS011;4481;43.406;24.454;2022-11-11T06:11:36;29.83;;;20.27;;
8889;SDS011;4481;43.406;24.454;2022-11-11T06:14:03;29.73;;;21.37;;
8889;SDS011;4481;43.406;24.454;2022-11-11T06:16:29;31.03;;;21.87;;
8889;SDS011;4481;43.406;24.454;2022-11-11T06:18:56;28.73;;;21.10;;
8889;SDS011;4481;43.406;24.454;2022-11-11T06:21:23;33.60;;;23.10;;
8889;SDS011;4481;43.406;24.454;2022-11-11T06:23:49;30.20;;;20.73;;
8889;SDS011;4481;43.406;24.454;2022-11-11T06:26:15;28.00;;;20.60;;
8889;SDS011;4481;43.406;24.454;2022-11-11T06:28:42;28.93;;;21.53;;
8889;SDS011;4481;43.406;24.454;2022-11-11T06:31:11;27.87;;;21.33;;
8889;SDS011;4481;43.406;24.454;2022-11-11T06:33:39;29.87;;;22.20;;
8889;SDS011;4481;43.406;24.454;2022-11-11T06:36:05;30.00;;;20.83;;
8889;SDS011;4481;43.406;24.454;2022-11-11T06:38:34;28.13;;;20.53;;
8889;SDS011;4481;43.406;24.454;2022-11-11T06:41:00;23.57;;;19.53;;
8889;SDS011;4481;43.406;24.454;2022-11-11T06:43:26;31.00;;;20.70;;
8889;SDS011;4481;43.406;24.454;2022-11-11T06:45:53;23.33;;;19.90;;
8889;SDS011;4481;43.406;24.454;2022-11-11T06:48:21;32.17;;;22.10;;
8889;SDS011;4481;43.406;24.454;2022-11-11T06:50:48;35.07;;;22.03;;
8889;SDS011;4481;43.406;24.454;2022-11-11T06:53:16;31.13;;;21.67;;
8889;SDS011;4481;43.406;24.454;2022-11-11T06:55:43;28.77;;;21.83;;
8889;SDS011;4481;43.406;24.454;2022-11-11T06:58:10;29.40;;;21.10;;
8889;SDS011;4481;43.406;24.454;2022-11-11T07:00:38;31.63;;;20.87;;
8889;SDS011;4481;43.406;24.454;2022-11-11T07:03:05;28.57;;;21.07;;
8889;SDS011;4481;43.406;24.454;2022-11-11T07:05:33;31.50;;;22.43;;
8889;SDS011;4481;43.406;24.454;2022-11-11T07:08:00;29.10;;;21.43;;
8889;SDS011;4481;43.406;24.454;2022-11-11T07:10:27;29.30;;;21.67;;
8889;SDS011;4481;43.406;24.454;2022-11-11T07:12:53;35.17;;;22.03;;
8889;SDS011;4481;43.406;24.454;2022-11-11T07:15:19;30.87;;;21.60;;
8889;SDS011;4481;43.406;24.454;2022-11-11T07:17:46;29.97;;;20.63;;
8889;SDS011;4481;43.406;24.454;2022-11-11T07:20:14;31.07;;;21.87;;
8889;SDS011;4481;43.406;24.454;2022-11-11T07:22:41;28.20;;;21.33;;
8889;SDS011;4481;43.406;24.454;2022-11-11T07:25:07;31.23;;;20.93;;
8889;SDS011;4481;43.406;24.454;2022-11-11T07:27:35;28.77;;;21.03;;
8889;SDS011;4481;43.406;24.454;2022-11-11T07:30:02;36.17;;;21.23;;
8889;SDS011;4481;43.406;24.454;2022-11-11T07:32:29;25.07;;;19.87;;
8889;SDS011;4481;43.406;24.454;2022-11-11T07:34:56;28.83;;;19.77;;
8889;SDS011;4481;43.406;24.454;2022-11-11T07:37:22;29.97;;;22.00;;
8889;SDS011;4481;43.406;24.454;2022-11-11T07:39:49;27.83;;;19.67;;
8889;SDS011;4481;43.406;24.454;2022-11-11T07:42:15;29.33;;;19.37;;
8889;SDS011;4481;43.406;24.454;2022-11-11T07:44:41;25.23;;;19.27;;
8889;SDS011;4481;43.406;24.454;2022-11-11T07:47:07;24.23;;;19.17;;
8889;SDS011;4481;43.406;24.454;2022-11-11T07:49:34;27.13;;;18.77;;
8889;SDS011;4481;43.406;24.454;2022-11-11T07:52:00;21.40;;;16.20;;
8889;SDS011;4481;43.406;24.454;2022-11-11T07:54:27;23.20;;;17.90;;
8889;SDS011;4481;43.406;24.454;2022-11-11T07:56:54;26.93;;;16.73;;
8889;SDS011;4481;43.406;24.454;2022-11-11T07:59:20;25.07;;;16.17;;
8889;SDS011;4481;43.406;24.454;2022-11-11T08:01:46;24.37;;;18.07;;
8889;SDS011;4481;43.406;24.454;2022-11-11T08:04:13;23.90;;;16.23;;
8889;SDS011;4481;43.406;24.454;2022-11-11T08:06:39;22.17;;;16.47;;
8889;SDS011;4481;43.406;24.454;2022-11-11T08:09:05;26.83;;;16.97;;
8889;SDS011;4481;43.406;24.454;2022-11-11T08:11:31;22.93;;;15.50;;
8889;SDS011;4481;43.406;24.454;2022-11-11T08:14:16;23.50;;;16.73;;
8889;SDS011;4481;43.406;24.454;2022-11-11T08:16:43;26.07;;;16.50;;
8889;SDS011;4481;43.406;24.454;2022-11-11T08:19:09;26.03;;;17.63;;
8889;SDS011;4481;43.406;24.454;2022-11-11T08:21:35;26.30;;;16.70;;
8889;SDS011;4481;43.406;24.454;2022-11-11T08:24:01;25.23;;;17.60;;
8889;SDS011;4481;43.406;24.454;2022-11-11T08:26:28;25.17;;;18.43;;
8889;SDS011;4481;43.406;24.454;2022-11-11T08:28:54;27.47;;;17.93;;
8889;SDS011;4481;43.406;24.454;2022-11-11T08:31:24;25.90;;;18.90;;
8889;SDS011;4481;43.406;24.454;2022-11-11T08:33:50;27.17;;;18.93;;
8889;SDS011;4481;43.406;24.454;2022-11-11T08:36:17;27.70;;;20.03;;
8889;SDS011;4481;43.406;24.454;2022-11-11T08:38:43;32.33;;;19.50;;
8889;SDS011;4481;43.406;24.454;2022-11-11T08:41:10;30.97;;;19.67;;
8889;SDS011;4481;43.406;24.454;2022-11-11T08:43:36;29.27;;;18.90;;
8889;SDS011;4481;43.406;24.454;2022-11-11T08:46:03;30.33;;;19.93;;
8889;SDS011;4481;43.406;24.454;2022-11-11T08:48:30;30.87;;;21.13;;
8889;SDS011;4481;43.406;24.454;2022-11-11T08:50:57;33.93;;;20.70;;
8889;SDS011;4481;43.406;24.454;2022-11-11T08:53:23;29.93;;;21.07;;
8889;SDS011;4481;43.406;24.454;2022-11-11T08:55:50;31.33;;;20.77;;
8889;SDS011;4481;43.406;24.454;2022-11-11T08:58:17;28.13;;;19.00;;
8889;SDS011;4481;43.406;24.454;2022-11-11T09:00:43;31.67;;;21.00;;
8889;SDS011;4481;43.406;24.454;2022-11-11T09:03:10;34.53;;;20.70;;
8889;SDS011;4481;43.406;24.454;2022-11-11T09:05:38;29.13;;;20.13;;
8889;SDS011;4481;43.406;24.454;2022-11-11T09:08:05;33.27;;;20.87;;
8889;SDS011;4481;43.406;24.454;2022-11-11T09:10:32;35.60;;;21.27;;
8889;SDS011;4481;43.406;24.454;2022-11-11T09:12:58;33.90;;;21.00;;
8889;SDS011;4481;43.406;24.454;2022-11-11T09:15:26;35.00;;;21.70;;
8889;SDS011;4481;43.406;24.454;2022-11-11T09:17:53;29.73;;;21.30;;
8889;SDS011;4481;43.406;24.454;2022-11-11T09:20:19;30.60;;;20.20;;
8889;SDS011;4481;43.406;24.454;2022-11-11T09:22:47;32.03;;;21.27;;
8889;SDS011;4481;43.406;24.454;2022-11-11T09:25:14;35.83;;;22.80;;
8889;SDS011;4481;43.406;24.454;2022-11-11T09:27:41;36.13;;;23.17;;
8889;SDS011;4481;43.406;24.454;2022-11-11T09:30:08;36.13;;;22.17;;
8889;SDS011;4481;43.406;24.454;2022-11-11T09:32:35;28.47;;;21.70;;
8889;SDS011;4481;43.406;24.454;2022-11-11T09:35:02;28.37;;;21.03;;
8889;SDS011;4481;43.406;24.454;2022-11-11T09:37:28;35.80;;;22.90;;
8889;SDS011;4481;43.406;24.454;2022-11-11T09:39:55;33.10;;;22.37;;
8889;SDS011;4481;43.406;24.454;2022-11-11T09:42:26;31.73;;;21.77;;
8889;SDS011;4481;43.406;24.454;2022-11-11T09:45:08;30.00;;;21.10;;
8889;SDS011;4481;43.406;24.454;2022-11-11T09:47:41;31.37;;;21.03;;
8889;SDS011;4481;43.406;24.454;2022-11-11T09:50:17;25.70;;;19.87;;
8889;SDS011;4481;43.406;24.454;2022-11-11T09:52:48;27.03;;;20.40;;
8889;SDS011;4481;43.406;24.454;2022-11-11T09:55:21;29.90;;;20.33;;
8889;SDS011;4481;43.406;24.454;2022-11-11T09:57:51;31.10;;;22.00;;
8889;SDS011;4481;43.406;24.454;2022-11-11T10:00:22;28.93;;;22.13;;
8889;SDS011;4481;43.406;24.454;2022-11-11T10:02:51;33.43;;;22.13;;
8889;SDS011;4481;43.406;24.454;2022-11-11T10:05:20;31.93;;;23.73;;
8889;SDS011;4481;43.406;24.454;2022-11-11T10:07:51;35.30;;;25.73;;
8889;SDS011;4481;43.406;24.454;2022-11-11T10:10:26;37.93;;;27.03;;
8889;SDS011;4481;43.406;24.454;2022-11-11T10:13:02;44.73;;;26.67;;
8889;SDS011;4481;43.406;24.454;2022-11-11T10:15:39;38.63;;;26.93;;
8889;SDS011;4481;43.406;24.454;2022-11-11T10:18:20;39.97;;;26.80;;
8889;SDS011;4481;43.406;24.454;2022-11-11T10:20:54;42.37;;;27.07;;
8889;SDS011;4481;43.406;24.454;2022-11-11T10:23:23;41.70;;;26.83;;
8889;SDS011;4481;43.406;24.454;2022-11-11T10:25:55;39.67;;;26.60;;
8889;SDS011;4481;43.406;24.454;2022-11-11T10:28:23;37.87;;;26.30;;
8889;SDS011;4481;43.406;24.454;2022-11-11T10:30:54;36.40;;;24.97;;
8889;SDS011;4481;43.406;24.454;2022-11-11T10:33:22;39.17;;;25.50;;
8889;SDS011;4481;43.406;24.454;2022-11-11T10:35:52;39.67;;;25.80;;
8889;SDS011;4481;43.406;24.454;2022-11-11T10:38:24;34.93;;;25.20;;
8889;SDS011;4481;43.406;24.454;2022-11-11T10:41:00;41.03;;;25.57;;
8889;SDS011;4481;43.406;24.454;2022-11-11T10:43:36;30.13;;;23.57;;
8889;SDS011;4481;43.406;24.454;2022-11-11T10:46:04;37.53;;;25.73;;
8889;SDS011;4481;43.406;24.454;2022-11-11T10:48:37;36.07;;;23.90;;
8889;SDS011;4481;43.406;24.454;2022-11-11T10:51:10;36.33;;;24.27;;
8889;SDS011;4481;43.406;24.454;2022-11-11T10:53:38;31.53;;;23.53;;
8889;SDS011;4481;43.406;24.454;2022-11-11T10:56:12;35.37;;;24.67;;
8889;SDS011;4481;43.406;24.454;2022-11-11T10:58:42;34.30;;;23.83;;
8889;SDS011;4481;43.406;24.454;2022-11-11T11:01:15;36.50;;;25.60;;
8889;SDS011;4481;43.406;24.454;2022-11-11T11:03:46;32.77;;;24.93;;
8889;SDS011;4481;43.406;24.454;2022-11-11T11:06:18;31.17;;;23.83;;
8889;SDS011;4481;43.406;24.454;2022-11-11T11:08:51;31.77;;;23.73;;
8889;SDS011;4481;43.406;24.454;2022-11-11T11:11:22;33.40;;;22.97;;
8889;SDS011;4481;43.406;24.454;2022-11-11T11:13:57;33.13;;;22.80;;
8889;SDS011;4481;43.406;24.454;2022-11-11T11:16:27;27.80;;;22.40;;
8889;SDS011;4481;43.406;24.454;2022-11-11T11:19:12;32.63;;;22.03;;
8889;SDS011;4481;43.406;24.454;2022-11-11T11:21:50;31.90;;;21.90;;
8889;SDS011;4481;43.406;24.454;2022-11-11T11:24:19;27.60;;;22.67;;
8889;SDS011;4481;43.406;24.454;2022-11-11T11:26:48;27.27;;;20.77;;
8889;SDS011;4481;43.406;24.454;2022-11-11T11:29:22;28.87;;;21.87;;
8889;SDS011;4481;43.406;24.454;2022-11-11T11:31:50;32.30;;;20.37;;
8889;SDS011;4481;43.406;24.454;2022-11-11T11:34:17;30.47;;;21.93;;
8889;SDS011;4481;43.406;24.454;2022-11-11T11:36:43;24.43;;;20.73;;
8889;SDS011;4481;43.406;24.454;2022-11-11T11:39:30;30.60;;;20.67;;
8889;SDS011;4481;43.406;24.454;2022-11-11T11:41:58;28.00;;;18.93;;
8889;SDS011;4481;43.406;24.454;2022-11-11T11:44:25;22.17;;;17.90;;
8889;SDS011;4481;43.406;24.454;2022-11-11T11:46:52;26.47;;;17.70;;
8889;SDS011;4481;43.406;24.454;2022-11-11T11:49:25;19.13;;;16.27;;
8889;SDS011;4481;43.406;24.454;2022-11-11T11:52:02;19.53;;;15.63;;
8889;SDS011;4481;43.406;24.454;2022-11-11T11:54:40;19.30;;;14.43;;
8889;SDS011;4481;43.406;24.454;2022-11-11T11:57:22;15.67;;;13.37;;
8889;SDS011;4481;43.406;24.454;2022-11-11T12:00:00;17.97;;;13.40;;
8889;SDS011;4481;43.406;24.454;2022-11-11T12:02:34;15.57;;;12.47;;
8889;SDS011;4481;43.406;24.454;2022-11-11T12:05:22;15.07;;;12.87;;
8889;SDS011;4481;43.406;24.454;2022-11-11T12:07:55;18.67;;;11.70;;
8889;SDS011;4481;43.406;24.454;2022-11-11T12:10:35;18.90;;;13.80;;
8889;SDS011;4481;43.406;24.454;2022-11-11T12:13:10;19.53;;;14.53;;
8889;SDS011;4481;43.406;24.454;2022-11-11T12:15:51;17.43;;;12.70;;
8889;SDS011;4481;43.406;24.454;2022-11-11T12:18:30;18.50;;;13.50;;
8889;SDS011;4481;43.406;24.454;2022-11-11T12:21:09;16.17;;;12.43;;
8889;SDS011;4481;43.406;24.454;2022-11-11T12:23:55;18.20;;;12.50;;
8889;SDS011;4481;43.406;24.454;2022-11-11T12:26:27;14.63;;;12.40;;
8889;SDS011;4481;43.406;24.454;2022-11-11T12:29:06;16.03;;;11.37;;
8889;SDS011;4481;43.406;24.454;2022-11-11T12:31:52;13.60;;;11.17;;
8889;SDS011;4481;43.406;24.454;2022-11-11T12:34:38;14.30;;;10.77;;
8889;SDS011;4481;43.406;24.454;2022-11-11T12:37:21;14.97;;;10.97;;
8889;SDS011;4481;43.406;24.454;2022-11-11T12:40:03;13.07;;;10.87;;
8889;SDS011;4481;43.406;24.454;2022-11-11T12:42:44;12.73;;;10.67;;
8889;SDS011;4481;43.406;24.454;2022-11-11T12:45:29;17.43;;;11.67;;
8889;SDS011;4481;43.406;24.454;2022-11-11T12:48:02;15.17;;;12.43;;
8889;SDS011;4481;43.406;24.454;2022-11-11T12:50:38;14.27;;;11.37;;
8889;SDS011;4481;43.406;24.454;2022-11-11T12:53:14;14.00;;;11.80;;
8889;SDS011;4481;43.406;24.454;2022-11-11T12:55:50;18.50;;;13.03;;
8889;SDS011;4481;43.406;24.454;2022-11-11T12:58:26;17.57;;;13.67;;
8889;SDS011;4481;43.406;24.454;2022-11-11T13:01:07;17.90;;;15.43;;
8889;SDS011;4481;43.406;24.454;2022-11-11T13:03:47;19.47;;;15.50;;
8889;SDS011;4481;43.406;24.454;2022-11-11T13:06:32;20.40;;;16.00;;
8889;SDS011;4481;43.406;24.454;2022-11-11T13:09:21;20.07;;;14.00;;
8889;SDS011;4481;43.406;24.454;2022-11-11T13:12:01;15.80;;;14.03;;
8889;SDS011;4481;43.406;24.454;2022-11-11T13:14:36;20.63;;;14.87;;
8889;SDS011;4481;43.406;24.454;2022-11-11T13:17:21;22.97;;;15.90;;
8889;SDS011;4481;43.406;24.454;2022-11-11T13:19:49;18.37;;;14.63;;
8889;SDS011;4481;43.406;24.454;2022-11-11T13:22:20;17.50;;;15.50;;
8889;SDS011;4481;43.406;24.454;2022-11-11T13:24:49;15.17;;;13.50;;
8889;SDS011;4481;43.406;24.454;2022-11-11T13:27:19;14.90;;;13.33;;
8889;SDS011;4481;43.406;24.454;2022-11-11T13:29:59;19.37;;;14.30;;
8889;SDS011;4481;43.406;24.454;2022-11-11T13:32:33;17.93;;;13.87;;
8889;SDS011;4481;43.406;24.454;2022-11-11T13:35:08;21.63;;;15.13;;
8889;SDS011;4481;43.406;24.454;2022-11-11T13:37:44;18.13;;;14.40;;
8889;SDS011;4481;43.406;24.454;2022-11-11T13:40:17;17.17;;;13.30;;
8889;SDS011;4481;43.406;24.454;2022-11-11T13:42:55;14.97;;;12.27;;
8889;SDS011;4481;43.406;24.454;2022-11-11T13:45:23;15.23;;;12.87;;
8889;SDS011;4481;43.406;24.454;2022-11-11T13:47:54;18.93;;;12.67;;
8889;SDS011;4481;43.406;24.454;2022-11-11T13:50:22;14.10;;;12.50;;
8889;SDS011;4481;43.406;24.454;2022-11-11T13:52:53;16.80;;;12.27;;
8889;SDS011;4481;43.406;24.454;2022-11-11T13:55:28;15.90;;;12.83;;
8889;SDS011;4481;43.406;24.454;2022-11-11T13:57:57;13.37;;;11.10;;
8889;SDS011;4481;43.406;24.454;2022-11-11T14:00:32;14.27;;;11.33;;
8889;SDS011;4481;43.406;24.454;2022-11-11T14:09:02;13.17;;;10.67;;
8889;SDS011;4481;43.406;24.454;2022-11-11T14:11:30;14.00;;;10.40;;
8889;SDS011;4481;43.406;24.454;2022-11-11T14:13:58;15.23;;;10.03;;
8889;SDS011;4481;43.406;24.454;2022-11-11T14:17:03;10.70;;;9.60;;
8889;SDS011;4481;43.406;24.454;2022-11-11T14:19:31;12.30;;;9.27;;
8889;SDS011;4481;43.406;24.454;2022-11-11T14:21:58;12.33;;;10.10;;
8889;SDS011;4481;43.406;24.454;2022-11-11T14:24:29;13.10;;;10.17;;
8889;SDS011;4481;43.406;24.454;2022-11-11T14:27:00;11.07;;;8.83;;
8889;SDS011;4481;43.406;24.454;2022-11-11T14:29:29;10.03;;;8.20;;
8889;SDS011;4481;43.406;24.454;2022-11-11T14:32:09;13.67;;;7.57;;
8889;SDS011;4481;43.406;24.454;2022-11-11T14:34:51;8.50;;;7.47;;
8889;SDS011;4481;43.406;24.454;2022-11-11T14:37:29;7.37;;;6.47;;
8889;SDS011;4481;43.406;24.454;2022-11-11T14:40:22;6.73;;;5.87;;
8889;SDS011;4481;43.406;24.454;2022-11-11T14:42:49;6.17;;;5.23;;
8889;SDS011;4481;43.406;24.454;2022-11-11T14:54:21;5.97;;;4.70;;
8889;SDS011;4481;43.406;24.454;2022-11-11T14:57:00;5.27;;;4.57;;
8889;SDS011;4481;43.406;24.454;2022-11-11T14:59:31;3.70;;;3.40;;
8889;SDS011;4481;43.406;24.454;2022-11-11T15:01:59;4.77;;;4.27;;
8889;SDS011;4481;43.406;24.454;2022-11-11T15:04:26;6.73;;;3.87;;
8889;SDS011;4481;43.406;24.454;2022-11-11T15:07:02;5.10;;;4.10;;
8889;SDS011;4481;43.406;24.454;2022-11-11T15:09:42;6.43;;;4.50;;
8889;SDS011;4481;43.406;24.454;2022-11-11T15:12:25;6.73;;;5.37;;
8889;SDS011;4481;43.406;24.454;2022-11-11T15:15:02;5.67;;;5.17;;